map of SSI home
SSI - Airport
Location
City:  Brunswick, Georgia, United States
Name:McKinnon St. Simons Island Airport
ICAO:KSSI
IATA:SSI
FAA LID:SSI

Details
Type:Airport (Airfield)
Use:Public/Civil, International (customs landing rights)
Latitude:3109'07"N (31.151972)
Longitude:8123'28"W (-81.391055)
Datum:WGS 1984
Elevation:18 ft (5 m)
Variation:6.72W (WMM2015 magnetic declination)
-0.08 annual change
Runways:2
Longest:5584 × 100 ft (1702 × 30.5 m), paved

Time
Time Zone:UTC-5 (DST-4)
Local Time:

Weather
METAR:KSSI 221353Z AUTO 17008KT 10SM CLR 29/25 A3010 RMK AO2 SLP192 T02940250
TAF:KSSI 221124Z 2212/2312 16006KT P6SM SCT015 SCT200
FM221400 14009KT P6SM SCT025 SCT200
FM222200 15008KT P6SM VCSH SCT020 BKN200
FM230400 17008KT P6SM SCT015 OVC250

Related Locations
Nearby:
Farthest:USL: 11483 mi / 18480 km
Useless Loop, WA, AU

Find:

   beyond  
but within

Other Information
Maps:
NOTAMs:
Links:
Sources:

  
flag of United States
flag of Georgia
  

Sectional Chart

Flight Planning
at skyvector.com

Satellite Image

Google Maps Satellite view

 

Copyright © 2004-2017 Karl L. Swartz. All rights reserved.
The Great Circle Mapper name and logo are trademarks of the Great Circle Mapper.
All other trademarks mentioned herein belong to their respective owners.
Please see credits for attibutions and further copyright information.

  Follow gcmap on Facebook Follow gcmap on Twitter Follow gcmap on Google+ GCmap on LinkedIn

hCard Microformat

Geo Microformat